createdAt,value
2017-09-20T00:00:20.068Z,99.90
2017-09-20T00:02:47.710Z,99.90
2017-09-20T00:05:15.324Z,99.90
2017-09-20T00:07:42.932Z,99.90
2017-09-20T00:10:10.584Z,99.90
2017-09-20T00:12:38.178Z,99.90
2017-09-20T00:15:05.808Z,99.90
2017-09-20T00:17:33.445Z,99.90
2017-09-20T00:20:01.088Z,99.90
2017-09-20T00:22:28.715Z,99.90
2017-09-20T00:24:56.340Z,99.90
2017-09-20T00:27:24.031Z,99.90
2017-09-20T00:29:51.686Z,99.90
2017-09-20T00:32:19.403Z,99.90
2017-09-20T00:34:47.110Z,99.90
2017-09-20T00:37:14.750Z,99.90
2017-09-20T00:39:42.344Z,99.90
2017-09-20T00:42:09.991Z,99.90
2017-09-20T00:44:37.655Z,99.90
2017-09-20T00:47:05.249Z,99.90
2017-09-20T00:49:32.909Z,99.90
2017-09-20T00:52:00.559Z,99.90
2017-09-20T00:54:29.002Z,99.90
2017-09-20T00:56:56.675Z,99.90
2017-09-20T00:59:24.350Z,99.90
2017-09-20T01:01:52.054Z,99.90
2017-09-20T01:04:19.736Z,99.90
2017-09-20T01:06:47.372Z,99.90
2017-09-20T01:09:15.122Z,99.90
2017-09-20T01:11:42.746Z,99.90
2017-09-20T01:14:10.396Z,99.90
2017-09-20T01:16:38.044Z,99.90
2017-09-20T01:19:05.765Z,99.90
2017-09-20T01:21:56.992Z,99.90
2017-09-20T01:24:24.662Z,99.90
2017-09-20T01:26:52.876Z,99.90
2017-09-20T01:29:20.528Z,99.90
2017-09-20T01:31:48.165Z,99.90
2017-09-20T01:34:15.823Z,99.90
2017-09-20T01:36:43.469Z,99.90
2017-09-20T01:39:11.225Z,99.90
2017-09-20T01:41:38.878Z,99.90
2017-09-20T01:44:07.333Z,99.90
2017-09-20T01:46:34.976Z,99.90
2017-09-20T01:49:02.723Z,99.90
2017-09-20T01:51:30.337Z,99.90
2017-09-20T01:53:57.975Z,99.90
2017-09-20T01:56:25.605Z,99.90
2017-09-20T01:58:53.266Z,99.90
2017-09-20T02:01:20.934Z,99.90
2017-09-20T02:03:48.583Z,99.90
2017-09-20T02:06:16.252Z,99.90
2017-09-20T02:08:43.963Z,99.90
2017-09-20T02:11:11.646Z,99.90
2017-09-20T02:13:39.355Z,99.90
2017-09-20T02:16:07.008Z,99.90
2017-09-20T02:18:34.634Z,99.90
2017-09-20T02:21:02.286Z,99.90
2017-09-20T02:23:29.931Z,99.90
2017-09-20T02:25:57.489Z,99.90
2017-09-20T02:28:25.103Z,99.90
2017-09-20T02:30:52.863Z,99.90
2017-09-20T02:33:20.464Z,99.90
2017-09-20T02:35:48.977Z,99.90
2017-09-20T02:38:16.709Z,99.90
2017-09-20T02:40:44.418Z,99.90
2017-09-20T02:43:12.276Z,99.90
2017-09-20T02:45:40.093Z,99.90
2017-09-20T02:48:07.840Z,99.90
2017-09-20T02:50:35.518Z,99.90
2017-09-20T02:53:03.188Z,99.90
2017-09-20T02:55:31.173Z,99.90
2017-09-20T02:57:58.834Z,99.90
2017-09-20T03:00:26.536Z,99.90
2017-09-20T03:02:54.286Z,99.90
2017-09-20T03:05:21.960Z,99.90
2017-09-20T03:07:49.641Z,99.90
2017-09-20T03:10:17.302Z,99.90
2017-09-20T03:12:45.683Z,99.90
2017-09-20T03:15:13.388Z,99.90
2017-09-20T03:17:41.059Z,99.90
2017-09-20T03:20:08.746Z,99.90
2017-09-20T03:22:36.484Z,99.90
2017-09-20T03:25:04.179Z,99.90
2017-09-20T03:27:31.855Z,99.90
2017-09-20T03:29:59.648Z,99.90
2017-09-20T03:32:27.300Z,99.90
2017-09-20T03:34:55.012Z,99.90
2017-09-20T03:37:22.696Z,99.90
2017-09-20T03:39:50.377Z,99.90
2017-09-20T03:42:18.074Z,99.90
2017-09-20T03:44:46.478Z,99.90
2017-09-20T03:47:14.114Z,99.90
2017-09-20T03:49:41.731Z,99.90
2017-09-20T03:52:09.410Z,99.90
2017-09-20T03:54:37.027Z,99.90
2017-09-20T03:57:04.673Z,99.90
2017-09-20T03:59:32.371Z,99.90
2017-09-20T04:02:00.019Z,99.90
2017-09-20T04:04:27.610Z,99.90
2017-09-20T04:06:55.262Z,99.90
2017-09-20T04:09:22.863Z,99.90
2017-09-20T04:11:50.510Z,99.90
2017-09-20T04:14:18.147Z,99.90
2017-09-20T04:16:45.753Z,99.90
2017-09-20T04:19:13.396Z,99.90
2017-09-20T04:21:41.042Z,99.90
2017-09-20T04:24:08.663Z,99.90
2017-09-20T04:26:36.334Z,99.90
2017-09-20T04:29:03.993Z,99.90
2017-09-20T04:31:31.624Z,99.90
2017-09-20T04:33:59.326Z,99.90
2017-09-20T04:36:27.691Z,99.90
2017-09-20T04:38:55.305Z,99.90
2017-09-20T04:41:22.944Z,99.90
2017-09-20T04:43:50.645Z,99.90
2017-09-20T04:46:18.274Z,99.90
2017-09-20T04:48:45.945Z,99.90
2017-09-20T04:51:13.714Z,99.90
2017-09-20T04:53:41.420Z,99.90
2017-09-20T04:56:09.058Z,99.90
2017-09-20T04:58:36.739Z,99.90
2017-09-20T05:01:04.445Z,99.90
2017-09-20T05:03:32.658Z,99.90
2017-09-20T05:06:00.406Z,99.90
2017-09-20T05:08:28.080Z,99.90
2017-09-20T05:10:55.784Z,99.90
2017-09-20T05:13:23.488Z,99.90
2017-09-20T05:15:51.939Z,99.90
2017-09-20T05:18:19.551Z,99.90
2017-09-20T05:20:47.243Z,99.90
2017-09-20T05:23:15.004Z,99.90
2017-09-20T05:25:42.696Z,99.90
2017-09-20T05:28:10.433Z,99.90
2017-09-20T05:30:38.186Z,99.90
2017-09-20T05:33:06.827Z,99.90
2017-09-20T05:35:34.560Z,99.90
2017-09-20T05:38:02.341Z,99.90
2017-09-20T05:40:31.283Z,99.90
2017-09-20T05:42:59.018Z,99.90
2017-09-20T05:45:26.671Z,99.90
2017-09-20T05:47:55.504Z,99.90
2017-09-20T05:50:23.246Z,99.90
2017-09-20T05:52:50.895Z,99.90
2017-09-20T05:55:18.570Z,99.90
2017-09-20T05:57:46.224Z,99.90
2017-09-20T06:00:13.899Z,99.90
2017-09-20T06:02:41.535Z,99.90
2017-09-20T06:05:09.173Z,99.90
2017-09-20T06:07:36.824Z,99.90
2017-09-20T06:10:04.527Z,97.50
2017-09-20T06:12:32.215Z,95.80
2017-09-20T06:14:59.824Z,94.10
2017-09-20T06:17:27.460Z,92.70
2017-09-20T06:19:55.090Z,91.70
2017-09-20T06:22:22.724Z,91.40
2017-09-20T06:24:50.388Z,90.40
2017-09-20T06:27:17.993Z,91.10
2017-09-20T06:29:45.622Z,92.10
2017-09-20T06:32:13.271Z,93.80
2017-09-20T06:34:40.906Z,95.40
2017-09-20T06:37:08.603Z,96.70
2017-09-20T06:39:36.234Z,98.00
2017-09-20T06:42:03.861Z,99.10
2017-09-20T06:44:31.564Z,99.60
2017-09-20T06:47:00.035Z,99.60
2017-09-20T06:49:28.644Z,99.90
2017-09-20T06:51:56.303Z,99.90
2017-09-20T06:54:23.910Z,99.90
2017-09-20T06:56:51.554Z,99.90
2017-09-20T06:59:19.190Z,99.90
2017-09-20T07:01:46.826Z,99.90
2017-09-20T07:04:14.496Z,99.90
2017-09-20T07:06:42.202Z,99.90
2017-09-20T07:09:10.020Z,99.90
2017-09-20T07:11:37.659Z,99.90
2017-09-20T07:14:05.412Z,99.90
2017-09-20T07:16:33.042Z,99.90
2017-09-20T07:19:00.683Z,99.90
2017-09-20T07:21:28.372Z,99.30
2017-09-20T07:23:56.055Z,99.00
2017-09-20T07:26:23.653Z,98.60
2017-09-20T07:28:51.326Z,98.70
2017-09-20T07:31:18.996Z,97.50
2017-09-20T07:33:46.633Z,96.00
2017-09-20T07:36:14.251Z,96.70
2017-09-20T07:38:41.918Z,96.60
2017-09-20T07:41:09.542Z,96.00
2017-09-20T07:43:37.210Z,94.60
2017-09-20T07:46:04.824Z,93.90
2017-09-20T07:48:32.447Z,93.70
2017-09-20T07:51:00.124Z,93.30
2017-09-20T07:53:27.684Z,92.50
2017-09-20T07:55:55.303Z,91.60
2017-09-20T07:58:22.930Z,89.10
2017-09-20T08:00:51.336Z,85.20
2017-09-20T08:03:18.962Z,85.20
2017-09-20T08:05:46.598Z,85.00
2017-09-20T08:08:14.185Z,85.60
2017-09-20T08:10:41.818Z,87.30
2017-09-20T08:13:09.490Z,85.10
2017-09-20T08:15:37.075Z,82.50
2017-09-20T08:18:04.692Z,81.10
2017-09-20T08:20:32.316Z,81.80
2017-09-20T08:22:59.948Z,78.20
2017-09-20T08:25:27.542Z,82.50
2017-09-20T08:27:55.176Z,86.90
2017-09-20T08:30:22.795Z,90.40
2017-09-20T08:32:50.460Z,90.80
2017-09-20T08:35:18.061Z,91.40
2017-09-20T08:37:45.712Z,90.50
2017-09-20T08:40:13.374Z,90.50
2017-09-20T08:42:41.017Z,89.70
2017-09-20T08:45:08.607Z,89.40
2017-09-20T08:47:36.238Z,90.00
2017-09-20T08:50:03.954Z,86.20
2017-09-20T08:52:31.662Z,83.20
2017-09-20T08:54:59.319Z,83.40
2017-09-20T08:57:26.959Z,83.40
2017-09-20T08:59:54.557Z,83.40
2017-09-20T09:02:22.183Z,84.70
2017-09-20T09:04:49.810Z,85.80
2017-09-20T09:07:18.193Z,78.70
2017-09-20T09:09:46.606Z,78.90
2017-09-20T09:12:14.236Z,78.90
2017-09-20T09:14:41.890Z,78.80
2017-09-20T09:17:09.657Z,73.50
2017-09-20T09:19:37.290Z,65.70
2017-09-20T09:22:04.903Z,67.40
2017-09-20T09:24:32.533Z,70.70
2017-09-20T09:27:00.155Z,74.20
2017-09-20T09:29:27.798Z,76.90
2017-09-20T09:31:55.423Z,79.80
2017-09-20T09:34:23.839Z,80.40
2017-09-20T09:36:51.472Z,79.50
2017-09-20T09:39:19.108Z,77.40
2017-09-20T09:41:46.755Z,74.60
2017-09-20T09:44:14.396Z,75.30
2017-09-20T09:46:42.056Z,75.00
2017-09-20T09:49:09.725Z,75.00
2017-09-20T09:51:37.316Z,74.50
2017-09-20T09:54:04.959Z,73.70
2017-09-20T09:56:32.617Z,71.70
2017-09-20T09:59:00.248Z,70.10
2017-09-20T10:01:27.835Z,62.40
2017-09-20T10:03:55.482Z,62.60
2017-09-20T10:06:23.206Z,56.40
2017-09-20T10:08:52.973Z,57.60
2017-09-20T10:11:20.653Z,55.40
2017-09-20T10:13:48.335Z,51.90
2017-09-20T10:16:16.096Z,52.50
2017-09-20T10:18:43.796Z,51.70
2017-09-20T10:21:11.477Z,50.80
2017-09-20T10:23:39.230Z,46.40
2017-09-20T10:26:06.903Z,43.60
2017-09-20T10:28:34.529Z,43.20
2017-09-20T10:31:02.143Z,44.60
2017-09-20T10:33:31.803Z,46.70
2017-09-20T10:36:00.180Z,49.00
2017-09-20T10:38:28.619Z,48.90
2017-09-20T10:40:56.311Z,48.90
2017-09-20T10:43:23.991Z,46.00
2017-09-20T10:45:51.800Z,45.60
2017-09-20T10:48:19.536Z,43.20
2017-09-20T10:50:47.196Z,40.20
2017-09-20T10:53:14.989Z,41.40
2017-09-20T10:55:42.704Z,41.60
2017-09-20T10:58:10.406Z,41.40
2017-09-20T11:00:38.157Z,42.20
2017-09-20T11:03:05.853Z,43.40
2017-09-20T11:05:33.514Z,45.00
2017-09-20T11:08:01.198Z,47.00
2017-09-20T11:10:28.854Z,50.80
2017-09-20T11:12:57.299Z,53.70
2017-09-20T11:15:25.002Z,53.70
2017-09-20T11:17:52.771Z,53.80
2017-09-20T11:20:20.448Z,56.30
2017-09-20T11:22:48.891Z,57.10
2017-09-20T11:25:16.679Z,57.00
2017-09-20T11:27:44.341Z,58.60
2017-09-20T11:30:12.017Z,60.90
2017-09-20T11:32:39.942Z,57.40
2017-09-20T11:35:07.620Z,50.60
2017-09-20T11:37:35.269Z,47.30
2017-09-20T11:40:02.909Z,47.40
2017-09-20T11:42:30.541Z,51.70
2017-09-20T11:44:58.161Z,54.00
2017-09-20T11:47:25.891Z,57.50
2017-09-20T11:49:53.554Z,61.90
2017-09-20T11:52:21.227Z,65.50
2017-09-20T11:54:48.856Z,69.00
2017-09-20T11:57:16.521Z,72.40
2017-09-20T11:59:44.168Z,75.50
2017-09-20T12:02:12.606Z,78.80
2017-09-20T12:04:40.360Z,78.70
2017-09-20T12:07:08.014Z,78.60
2017-09-20T12:09:35.634Z,76.30
2017-09-20T12:12:03.308Z,74.60
2017-09-20T12:14:31.710Z,71.20
2017-09-20T12:16:59.444Z,71.00
2017-09-20T12:19:27.799Z,66.80
2017-09-20T12:21:55.423Z,66.80
2017-09-20T12:24:23.171Z,65.80
2017-09-20T12:26:50.810Z,63.20
2017-09-20T12:29:18.542Z,62.80
2017-09-20T12:31:46.238Z,63.40
2017-09-20T12:34:13.906Z,63.60
2017-09-20T12:36:41.635Z,63.90
2017-09-20T12:39:09.281Z,63.50
2017-09-20T12:41:36.963Z,65.30
2017-09-20T12:44:04.560Z,62.80
2017-09-20T12:46:32.371Z,61.10
2017-09-20T12:49:00.042Z,62.60
2017-09-20T12:51:27.683Z,59.90
2017-09-20T12:53:55.517Z,62.70
2017-09-20T12:56:23.416Z,61.60
2017-09-20T12:58:51.054Z,61.50
2017-09-20T13:01:18.718Z,60.30
2017-09-20T13:03:46.431Z,59.20
2017-09-20T13:06:14.065Z,61.20
2017-09-20T13:08:41.744Z,64.30
2017-09-20T13:11:09.462Z,67.30
2017-09-20T13:13:37.124Z,69.20
2017-09-20T13:16:05.582Z,71.30
2017-09-20T13:18:33.341Z,71.30
2017-09-20T13:21:01.882Z,72.00
2017-09-20T13:23:30.361Z,72.50
2017-09-20T13:25:58.130Z,72.80
2017-09-20T13:28:25.907Z,71.70
2017-09-20T13:30:53.622Z,70.70
2017-09-20T13:33:21.321Z,70.70
2017-09-20T13:35:49.365Z,65.00
2017-09-20T13:38:17.371Z,63.70
2017-09-20T13:40:45.315Z,64.00
2017-09-20T13:43:13.161Z,64.60
2017-09-20T13:45:40.798Z,63.70
2017-09-20T13:48:08.667Z,64.40
2017-09-20T13:50:36.390Z,63.40
2017-09-20T13:53:04.051Z,65.50
2017-09-20T13:55:32.943Z,64.70
2017-09-20T13:58:11.061Z,64.60
2017-09-20T14:00:38.754Z,64.00
2017-09-20T14:03:07.327Z,65.40
2017-09-20T14:05:35.124Z,63.80
2017-09-20T14:08:02.802Z,63.20
2017-09-20T14:10:30.479Z,63.10
2017-09-20T14:12:58.114Z,64.20
2017-09-20T14:15:25.714Z,62.60
2017-09-20T14:17:53.451Z,64.70
2017-09-20T14:20:21.089Z,65.60
2017-09-20T14:22:48.715Z,66.50
2017-09-20T14:25:17.495Z,66.20
2017-09-20T14:27:45.134Z,68.60
2017-09-20T14:30:12.983Z,67.70
2017-09-20T14:32:40.683Z,67.20
2017-09-20T14:35:08.358Z,69.70
2017-09-20T14:37:36.021Z,70.30
2017-09-20T14:40:04.939Z,72.00
2017-09-20T14:42:36.660Z,73.00
2017-09-20T14:45:04.840Z,75.70
2017-09-20T14:47:32.513Z,75.80
2017-09-20T14:50:00.233Z,76.90
2017-09-20T14:52:27.899Z,77.80
2017-09-20T14:54:55.535Z,75.60
2017-09-20T14:57:23.935Z,75.60
2017-09-20T14:59:51.594Z,75.60
2017-09-20T15:02:19.205Z,76.90
2017-09-20T15:04:46.808Z,77.90
2017-09-20T15:07:14.580Z,79.70
2017-09-20T15:09:42.221Z,81.90
2017-09-20T15:12:09.862Z,83.20
2017-09-20T15:14:37.651Z,84.10
2017-09-20T15:17:05.327Z,84.40
2017-09-20T15:19:32.988Z,84.90
2017-09-20T15:22:00.632Z,84.10
2017-09-20T15:24:28.637Z,83.80
2017-09-20T15:26:56.255Z,83.70
2017-09-20T15:29:23.866Z,84.80
2017-09-20T15:31:54.737Z,84.80
2017-09-20T15:34:22.339Z,84.40
2017-09-20T15:36:53.007Z,85.20
2017-09-20T15:39:20.654Z,85.20
2017-09-20T15:41:48.290Z,86.10
2017-09-20T15:44:15.941Z,87.00
2017-09-20T15:46:43.699Z,88.10
2017-09-20T15:49:11.405Z,88.30
2017-09-20T15:51:39.816Z,86.80
2017-09-20T15:54:07.455Z,86.70
2017-09-20T15:56:35.142Z,85.10
2017-09-20T15:59:02.856Z,83.40
2017-09-20T16:01:30.518Z,82.40
2017-09-20T16:03:58.166Z,83.70
2017-09-20T16:06:29.908Z,85.00
2017-09-20T16:08:58.355Z,84.30
2017-09-20T16:11:25.996Z,84.30
2017-09-20T16:13:53.673Z,83.90
2017-09-20T16:16:21.344Z,85.20
2017-09-20T16:18:48.942Z,84.60
2017-09-20T16:21:17.366Z,84.90
2017-09-20T16:23:45.011Z,84.80
2017-09-20T16:26:12.638Z,85.80
2017-09-20T16:28:40.260Z,86.70
2017-09-20T16:31:07.925Z,85.80
2017-09-20T16:33:35.559Z,86.40
2017-09-20T16:36:03.800Z,87.70
2017-09-20T16:38:31.454Z,87.40
2017-09-20T16:40:59.084Z,88.20
2017-09-20T16:43:26.693Z,88.20
2017-09-20T16:45:54.326Z,88.70
2017-09-20T16:48:21.978Z,89.60
2017-09-20T16:50:49.715Z,90.30
2017-09-20T16:53:17.515Z,90.80
2017-09-20T16:55:45.154Z,91.30
2017-09-20T16:58:12.838Z,92.10
2017-09-20T17:00:40.581Z,92.30
2017-09-20T17:03:08.241Z,92.80
2017-09-20T17:05:35.881Z,93.10
2017-09-20T17:08:03.557Z,93.70
2017-09-20T17:10:31.297Z,93.90
2017-09-20T17:12:58.938Z,94.40
2017-09-20T17:15:26.541Z,94.70
2017-09-20T17:17:54.164Z,94.70
2017-09-20T17:20:21.867Z,95.00
2017-09-20T17:22:49.489Z,95.40
2017-09-20T17:25:17.197Z,95.60
2017-09-20T17:27:45.205Z,96.00
2017-09-20T17:30:14.729Z,96.10
2017-09-20T17:32:42.449Z,96.70
2017-09-20T17:35:10.930Z,96.70
2017-09-20T17:37:38.736Z,97.00
2017-09-20T17:40:06.554Z,96.70
2017-09-20T17:42:34.358Z,97.30
2017-09-20T17:45:02.129Z,97.20
2017-09-20T17:47:29.988Z,97.60
2017-09-20T17:49:59.825Z,97.70
2017-09-20T17:52:27.668Z,97.70
2017-09-20T17:54:55.402Z,97.70
2017-09-20T17:57:23.460Z,97.90
2017-09-20T17:59:51.142Z,98.40
2017-09-20T18:02:20.347Z,98.60
2017-09-20T18:04:48.546Z,99.10
2017-09-20T18:07:16.777Z,99.40
2017-09-20T18:09:44.473Z,99.90
2017-09-20T18:12:12.060Z,99.90
2017-09-20T18:14:39.709Z,99.90
2017-09-20T18:17:07.346Z,99.90
2017-09-20T18:19:35.028Z,99.90
2017-09-20T18:22:02.667Z,99.90
2017-09-20T18:24:30.616Z,99.90
2017-09-20T18:26:58.318Z,99.90
2017-09-20T18:29:26.301Z,99.90
2017-09-20T18:31:53.942Z,99.90
2017-09-20T18:34:21.564Z,99.90
2017-09-20T18:36:50.089Z,99.90
2017-09-20T18:39:18.646Z,99.90
2017-09-20T18:41:46.319Z,99.90
2017-09-20T18:44:14.031Z,99.90
2017-09-20T18:46:41.675Z,99.90
2017-09-20T18:49:09.302Z,99.90
2017-09-20T18:51:36.974Z,99.90
2017-09-20T18:54:04.619Z,99.90
2017-09-20T18:56:32.257Z,99.90
2017-09-20T18:58:59.958Z,99.90
2017-09-20T19:01:27.569Z,99.90
2017-09-20T19:03:55.165Z,99.90
2017-09-20T19:06:22.800Z,99.90
2017-09-20T19:08:50.405Z,99.90
2017-09-20T19:11:18.651Z,99.90
2017-09-20T19:13:46.236Z,99.90
2017-09-20T19:16:14.810Z,99.90
2017-09-20T19:18:42.592Z,99.90
2017-09-20T19:21:10.188Z,99.90
2017-09-20T19:23:37.896Z,99.90
2017-09-20T19:26:05.577Z,99.90
2017-09-20T19:28:33.232Z,99.90
2017-09-20T19:31:01.751Z,99.90
2017-09-20T19:33:29.336Z,99.90
2017-09-20T19:35:56.965Z,99.90
2017-09-20T19:38:24.568Z,99.90
2017-09-20T19:40:52.186Z,99.90
2017-09-20T19:43:19.872Z,99.90
2017-09-20T19:45:47.508Z,99.90
2017-09-20T19:48:15.225Z,99.90
2017-09-20T19:50:42.856Z,99.90
2017-09-20T19:53:10.503Z,99.90
2017-09-20T19:55:38.128Z,99.90
2017-09-20T19:58:05.741Z,99.90
2017-09-20T20:00:34.231Z,99.90
2017-09-20T20:03:01.933Z,99.90
2017-09-20T20:05:29.531Z,99.90
2017-09-20T20:07:57.168Z,99.90
2017-09-20T20:10:24.779Z,99.90
2017-09-20T20:12:52.378Z,99.90
2017-09-20T20:15:19.963Z,99.90
2017-09-20T20:17:47.696Z,99.90
2017-09-20T20:20:15.388Z,99.90
2017-09-20T20:22:43.100Z,99.90
2017-09-20T20:25:10.764Z,99.90
2017-09-20T20:27:38.457Z,99.90
2017-09-20T20:30:06.119Z,99.90
2017-09-20T20:32:33.789Z,99.90
2017-09-20T20:35:01.431Z,99.90
2017-09-20T20:37:29.016Z,99.90
2017-09-20T20:39:56.631Z,99.90
2017-09-20T20:42:24.333Z,99.90
2017-09-20T20:44:51.917Z,99.90
2017-09-20T20:47:19.561Z,99.90
2017-09-20T20:49:47.215Z,99.90
2017-09-20T20:52:14.858Z,99.90
2017-09-20T20:54:42.477Z,99.90
2017-09-20T20:57:10.091Z,99.90
2017-09-20T20:59:38.168Z,99.90
2017-09-20T21:02:05.805Z,99.90
2017-09-20T21:04:34.332Z,99.90
2017-09-20T21:07:01.969Z,99.90
2017-09-20T21:09:29.585Z,99.90
2017-09-20T21:11:57.208Z,99.90
2017-09-20T21:14:24.845Z,99.90
2017-09-20T21:16:52.459Z,99.90
2017-09-20T21:19:20.814Z,99.90
2017-09-20T21:21:48.544Z,99.90
2017-09-20T21:24:16.126Z,99.90
2017-09-20T21:26:43.716Z,99.90
2017-09-20T21:29:17.371Z,99.90
2017-09-20T21:31:44.956Z,99.90
2017-09-20T21:34:12.691Z,99.90
2017-09-20T21:36:40.263Z,99.90
2017-09-20T21:39:07.936Z,99.90
2017-09-20T21:41:35.527Z,99.90
2017-09-20T21:44:03.122Z,99.90
2017-09-20T21:46:30.758Z,99.90
2017-09-20T21:48:59.206Z,99.90
2017-09-20T21:51:27.003Z,99.90
2017-09-20T21:53:55.411Z,99.90
2017-09-20T21:56:23.101Z,99.90
2017-09-20T21:58:50.718Z,99.90
2017-09-20T22:01:18.983Z,99.90
2017-09-20T22:03:47.359Z,99.90
2017-09-20T22:06:15.777Z,99.90
2017-09-20T22:08:43.370Z,99.90
2017-09-20T22:11:11.573Z,99.90
2017-09-20T22:13:39.990Z,99.90
2017-09-20T22:16:19.332Z,99.90
2017-09-20T22:18:59.009Z,99.90
2017-09-20T22:21:38.592Z,99.90
2017-09-20T22:24:18.067Z,99.90
2017-09-20T22:26:46.051Z,99.90
2017-09-20T22:29:13.684Z,99.90
2017-09-20T22:31:41.286Z,99.90
2017-09-20T22:34:08.911Z,99.90
2017-09-20T22:36:36.641Z,99.90
2017-09-20T22:39:04.344Z,99.90
2017-09-20T22:41:31.969Z,99.90
2017-09-20T22:43:59.594Z,99.90
2017-09-20T22:46:27.245Z,99.90
2017-09-20T22:48:54.926Z,99.90
2017-09-20T22:51:22.560Z,99.90
2017-09-20T22:53:50.222Z,99.90
2017-09-20T22:56:17.846Z,99.90
2017-09-20T22:58:45.483Z,99.90
2017-09-20T23:01:13.841Z,99.90
2017-09-20T23:03:41.441Z,99.90
2017-09-20T23:06:09.074Z,99.90
2017-09-20T23:08:36.665Z,99.90
2017-09-20T23:11:04.334Z,99.90
2017-09-20T23:13:31.961Z,99.90
2017-09-20T23:15:59.583Z,99.90
2017-09-20T23:18:27.257Z,99.90
2017-09-20T23:20:54.894Z,99.90
2017-09-20T23:23:22.554Z,99.90
2017-09-20T23:25:50.138Z,99.90
2017-09-20T23:28:17.784Z,99.90
2017-09-20T23:30:45.384Z,99.90
2017-09-20T23:33:13.076Z,99.90
2017-09-20T23:35:40.700Z,99.90
2017-09-20T23:38:08.320Z,99.90
2017-09-20T23:40:36.019Z,99.90
2017-09-20T23:43:03.672Z,99.90
2017-09-20T23:45:31.304Z,99.90
2017-09-20T23:47:58.899Z,99.90
2017-09-20T23:50:26.485Z,99.90
2017-09-20T23:52:54.130Z,99.90
2017-09-20T23:55:21.763Z,99.90
2017-09-20T23:57:49.382Z,99.90
